Golden, Colorado
Current Conditions -  °F | °C
As of 8:50 AM on Friday 31 Oct 2014 (Local Time) from KBJC Reporting Station
Broken Clouds Broken Clouds  
Wind Chill: 29°   Ceiling: 20000
Heat Index: 36°   Visibility: 40mi
Dew Point: 28°   Wind: 9mph
Humidity: 75%   Direction: 330°NNW
Pressure: 30.33"   Gusts: NA
Location:  39.76°N, 105.22°W
Report Text: KBJC 311450Z 33008KT 40SM SCT120 BKN200 02/M02 A3033
Loading
Personal Weather Stations






























Interactive Weather Map
Tropical Storm Tracking
New forecast layout! Learn more

10-Day Weather Forecast

Advertisements
Track Severe Weather on mobile